Time;durP1;ratioP1;P1;durP2;ratioP2;P2;SDS_P1;SDS_P2;PMS_P1;PMS_P2;Temp;Humidity;BMP_temperature;BMP_pressure;BME280_temperature;BME280_humidity;BME280_pressure;Samples;Min_cycle;Max_cycle;Signal;HPM_P1;HPM_P2
2023/09/30 00:02:11;;;;;;;7.47;6.37;;;24.20;65.80;;;;;;5011326;28;20217;-71
2023/09/30 00:04:39;;;;;;;7.13;6.43;;;24.10;65.00;;;;;;5011813;28;20182;-72
2023/09/30 00:07:06;;;;;;;7.47;6.43;;;24.30;64.80;;;;;;5011424;28;20186;-72
2023/09/30 00:09:34;;;;;;;8.03;6.87;;;24.30;63.30;;;;;;5010109;28;20279;-69
2023/09/30 00:12:04;;;;;;;10.33;6.90;;;24.30;65.20;;;;;;5009616;28;20248;-70
2023/09/30 00:14:32;;;;;;;12.73;7.43;;;24.50;63.70;;;;;;5010263;28;20243;-73
2023/09/30 00:17:00;;;;;;;7.67;6.73;;;24.40;62.90;;;;;;5012370;28;20559;-71
2023/09/30 00:19:27;;;;;;;7.40;5.67;;;24.30;63.80;;;;;;5013236;28;20181;-71
2023/09/30 00:21:54;;;;;;;9.47;6.50;;;24.40;61.20;;;;;;5012240;28;20193;-71
2023/09/30 00:24:22;;;;;;;9.63;5.80;;;24.60;63.60;;;;;;5012100;28;20873;-73
2023/09/30 00:26:50;;;;;;;7.00;5.77;;;24.80;62.30;;;;;;5011568;28;20185;-69
2023/09/30 00:29:20;;;;;;;7.27;5.50;;;24.90;62.70;;;;;;5010624;28;20651;-73
2023/09/30 00:31:48;;;;;;;8.17;6.37;;;25.00;61.70;;;;;;5012171;28;20272;-70
2023/09/30 00:34:15;;;;;;;9.20;5.60;;;25.10;61.60;;;;;;5012290;28;20221;-70
2023/09/30 00:36:42;;;;;;;10.03;5.73;;;25.10;60.60;;;;;;5012234;28;20185;-71
2023/09/30 00:39:10;;;;;;;7.30;4.77;;;25.00;61.20;;;;;;5010880;28;20188;-70
2023/09/30 00:41:40;;;;;;;6.80;4.40;;;25.20;59.90;;;;;;5011370;28;20281;-74
2023/09/30 00:44:10;;;;;;;5.70;4.90;;;25.30;59.30;;;;;;5012670;28;20185;-71
2023/09/30 00:46:41;;;;;;;6.90;4.47;;;25.30;58.90;;;;;;5013113;28;20205;-71
2023/09/30 00:49:10;;;;;;;8.00;4.90;;;25.40;59.10;;;;;;5012099;28;20592;-74
2023/09/30 00:51:37;;;;;;;11.03;5.30;;;25.40;59.90;;;;;;5010699;28;20182;-72
2023/09/30 00:54:06;;;;;;;8.43;5.10;;;25.40;60.30;;;;;;5013216;28;20717;-71
2023/09/30 00:56:33;;;;;;;7.03;5.10;;;25.50;60.10;;;;;;5013282;28;20177;-72
2023/09/30 00:59:02;;;;;;;10.30;5.47;;;25.30;61.20;;;;;;5012776;28;20643;-72
2023/09/30 01:01:29;;;;;;;5.77;4.53;;;25.60;60.30;;;;;;5012835;28;20236;-73
2023/09/30 01:03:58;;;;;;;7.07;4.90;;;25.80;60.10;;;;;;5013476;28;20189;-75
2023/09/30 01:06:26;;;;;;;11.57;7.57;;;25.80;59.10;;;;;;5012877;28;20208;-72
2023/09/30 01:08:55;;;;;;;10.50;5.50;;;25.80;60.00;;;;;;5011878;28;20267;-74
2023/09/30 01:11:23;;;;;;;8.67;4.63;;;25.90;60.30;;;;;;5011544;28;20174;-75
2023/09/30 01:13:50;;;;;;;6.87;4.70;;;25.60;61.60;;;;;;5012922;28;20193;-71
2023/09/30 01:16:17;;;;;;;7.70;5.17;;;25.90;60.90;;;;;;5012868;28;20189;-75
2023/09/30 01:18:45;;;;;;;8.50;5.00;;;25.90;59.90;;;;;;5012636;28;20189;-72
2023/09/30 01:21:12;;;;;;;8.90;4.67;;;25.80;61.20;;;;;;5012483;28;20196;-72
2023/09/30 01:23:40;;;;;;;7.83;4.97;;;25.60;61.80;;;;;;5010799;28;20221;-72
2023/09/30 01:26:11;;;;;;;10.27;5.33;;;25.80;61.30;;;;;;5010744;28;20193;-72
2023/09/30 01:28:40;;;;;;;11.00;6.03;;;26.00;61.00;;;;;;5012372;28;20181;-72
2023/09/30 01:31:07;;;;;;;9.17;5.10;;;25.90;61.30;;;;;;5011032;28;20212;-76
2023/09/30 01:33:38;;;;;;;10.93;5.40;;;26.30;61.20;;;;;;5010601;28;20248;-72
2023/09/30 01:36:05;;;;;;;11.30;6.27;;;26.30;61.50;;;;;;5011024;28;20220;-72
2023/09/30 01:38:33;;;;;;;11.47;5.40;;;26.40;60.20;;;;;;5012055;28;20227;-74
2023/09/30 01:41:00;;;;;;;11.00;5.83;;;26.50;59.80;;;;;;5011916;28;20236;-74
2023/09/30 01:43:28;;;;;;;10.37;5.40;;;26.30;60.30;;;;;;5012338;28;20177;-73
2023/09/30 01:45:55;;;;;;;7.23;5.30;;;26.40;60.60;;;;;;5011831;28;20190;-73
2023/09/30 01:48:23;;;;;;;17.23;6.47;;;26.40;61.20;;;;;;5011212;28;20259;-74
2023/09/30 01:50:50;;;;;;;11.00;6.37;;;26.60;60.60;;;;;;5012746;28;20201;-70
2023/09/30 01:53:18;;;;;;;9.07;5.97;;;26.70;60.10;;;;;;5015665;28;20212;-73
2023/09/30 01:55:45;;;;;;;11.53;6.53;;;26.90;59.80;;;;;;5015787;28;20578;-72
2023/09/30 01:58:13;;;;;;;16.77;6.33;;;27.00;60.00;;;;;;5015578;28;20181;-73
2023/09/30 02:00:41;;;;;;;9.47;5.50;;;27.20;59.00;;;;;;5013584;28;20260;-73
2023/09/30 02:03:08;;;;;;;7.63;5.10;;;26.90;60.40;;;;;;5012682;28;20185;-73
2023/09/30 02:05:36;;;;;;;10.30;5.23;;;27.00;60.40;;;;;;5012705;28;20658;-73
2023/09/30 02:08:05;;;;;;;8.43;4.77;;;27.10;60.40;;;;;;5013179;28;20263;-72
2023/09/30 02:10:37;;;;;;;11.07;5.20;;;27.10;59.80;;;;;;5014511;28;20181;-72
2023/09/30 02:13:06;;;;;;;9.67;4.97;;;27.10;59.90;;;;;;5031067;28;20186;-73
2023/09/30 02:15:34;;;;;;;11.47;5.73;;;27.30;59.10;;;;;;5012774;28;20276;-71
2023/09/30 02:18:03;;;;;;;14.03;5.47;;;27.00;60.90;;;;;;5014421;28;20272;-75
2023/09/30 02:20:31;;;;;;;8.97;5.57;;;27.50;60.00;;;;;;5015677;28;20189;-74
2023/09/30 02:22:59;;;;;;;9.50;5.87;;;27.60;59.20;;;;;;5014434;28;20221;-72
2023/09/30 02:25:26;;;;;;;12.57;5.50;;;27.60;58.90;;;;;;5015720;28;20187;-76
2023/09/30 02:27:54;;;;;;;8.30;5.70;;;27.50;58.80;;;;;;5015929;28;20177;-72
2023/09/30 02:30:21;;;;;;;11.53;5.03;;;27.70;58.00;;;;;;5015743;28;20181;-72
2023/09/30 02:32:49;;;;;;;10.30;4.97;;;27.80;58.50;;;;;;5015508;28;20182;-70
2023/09/30 02:35:16;;;;;;;9.83;5.23;;;27.80;57.50;;;;;;5015266;28;20197;-73
2023/09/30 02:37:46;;;;;;;10.27;4.70;;;27.60;58.50;;;;;;5015316;28;20656;-71
2023/09/30 02:40:14;;;;;;;11.63;5.33;;;27.90;57.30;;;;;;5015559;28;20215;-73
2023/09/30 02:42:42;;;;;;;10.60;4.80;;;27.80;56.90;;;;;;5015506;28;20177;-71
2023/09/30 02:45:11;;;;;;;6.40;4.97;;;27.90;56.80;;;;;;5015312;28;20276;-69
2023/09/30 02:47:39;;;;;;;10.20;5.30;;;27.60;57.70;;;;;;5014528;28;20181;-72
2023/09/30 02:50:11;;;;;;;8.73;5.07;;;27.60;57.10;;;;;;5013683;28;20185;-71
2023/09/30 02:52:41;;;;;;;8.27;4.83;;;27.80;57.50;;;;;;5014962;28;20185;-74
2023/09/30 02:55:10;;;;;;;11.40;4.97;;;28.00;57.10;;;;;;5014276;28;20235;-71
2023/09/30 02:57:37;;;;;;;11.27;4.77;;;28.00;56.80;;;;;;5014988;28;20268;-74
2023/09/30 03:02:48;;;;;;;9.50;5.10;;;28.30;56.10;;;;;;5015205;28;20181;-69
2023/09/30 03:05:16;;;;;;;10.37;4.60;;;28.30;56.40;;;;;;5015272;28;20200;-72
2023/09/30 03:07:43;;;;;;;9.53;5.37;;;28.30;56.20;;;;;;5014870;28;20304;-70
2023/09/30 03:10:12;;;;;;;8.97;4.97;;;28.60;55.70;;;;;;5015286;28;20256;-72
2023/09/30 03:12:40;;;;;;;10.87;5.83;;;28.30;55.80;;;;;;5015170;28;20587;-70
2023/09/30 03:15:09;;;;;;;10.23;4.97;;;28.50;55.80;;;;;;5014817;28;20217;-73
2023/09/30 03:17:41;;;;;;;8.63;5.10;;;28.20;57.20;;;;;;5014227;28;20204;-73
2023/09/30 03:20:14;;;;;;;10.90;5.00;;;28.40;55.50;;;;;;5014824;28;20187;-72
2023/09/30 03:22:42;;;;;;;9.83;5.77;;;28.50;55.90;;;;;;5013085;28;20260;-69
2023/09/30 03:25:11;;;;;;;15.57;5.37;;;28.90;54.60;;;;;;5013933;28;20263;-69
2023/09/30 03:27:39;;;;;;;10.03;4.77;;;28.80;55.20;;;;;;5014044;28;20181;-71
2023/09/30 03:30:08;;;;;;;8.73;4.90;;;28.60;55.10;;;;;;5013901;28;20345;-71
2023/09/30 03:32:40;;;;;;;9.73;4.87;;;28.80;55.30;;;;;;5014225;28;20185;-72
2023/09/30 03:35:10;;;;;;;7.27;4.80;;;28.70;55.10;;;;;;5014200;28;20243;-70
2023/09/30 03:37:41;;;;;;;8.33;4.97;;;29.00;54.60;;;;;;5013808;28;20188;-69
2023/09/30 03:40:18;;;;;;;12.73;5.70;;;29.10;53.50;;;;;;5012494;28;20173;-73
2023/09/30 03:42:51;;;;;;;13.47;4.87;;;29.00;54.00;;;;;;5013645;28;20173;-71
2023/09/30 03:45:19;;;;;;;12.87;5.40;;;29.10;53.00;;;;;;5013143;28;20208;-71
2023/09/30 03:47:47;;;;;;;8.63;5.18;;;28.80;54.50;;;;;;5011870;28;20208;-69
2023/09/30 03:50:16;;;;;;;15.43;5.72;;;28.90;53.70;;;;;;5012926;28;20272;-70
2023/09/30 03:52:47;;;;;;;11.90;5.03;;;28.90;54.00;;;;;;5013455;28;20192;-70
2023/09/30 03:55:15;;;;;;;9.10;5.03;;;29.10;52.50;;;;;;5014039;28;20263;-73
2023/09/30 03:57:43;;;;;;;8.93;4.30;;;29.00;52.70;;;;;;5013382;28;20177;-68
2023/09/30 04:00:15;;;;;;;11.57;4.82;;;29.10;53.10;;;;;;5013774;28;20191;-70
2023/09/30 04:02:43;;;;;;;14.35;5.22;;;29.00;52.50;;;;;;5013859;28;20181;-69
2023/09/30 04:05:14;;;;;;;9.77;5.18;;;29.20;52.00;;;;;;5011817;28;20217;-71
2023/09/30 04:07:42;;;;;;;7.90;4.77;;;28.70;53.80;;;;;;5013216;28;20727;-70
2023/09/30 04:10:10;;;;;;;11.40;5.10;;;29.10;52.80;;;;;;5013646;28;20177;-71
2023/09/30 04:12:38;;;;;;;12.88;5.65;;;29.10;52.70;;;;;;4993935;28;20174;-69
2023/09/30 04:15:06;;;;;;;10.32;4.80;;;29.50;51.50;;;;;;5011831;28;20575;-69
2023/09/30 04:17:37;;;;;;;7.75;4.38;;;29.60;51.40;;;;;;5012129;28;20181;-70
2023/09/30 04:20:08;;;;;;;10.25;4.80;;;29.80;50.40;;;;;;5011866;28;20839;-68
2023/09/30 04:22:36;;;;;;;9.07;4.38;;;29.60;50.50;;;;;;5007875;28;20209;-71
2023/09/30 04:25:08;;;;;;;9.18;4.47;;;29.30;51.20;;;;;;5011234;28;20181;-72
2023/09/30 04:27:36;;;;;;;9.13;4.87;;;29.00;51.80;;;;;;5011312;28;20227;-70
2023/09/30 04:30:08;;;;;;;8.68;4.32;;;29.20;51.90;;;;;;5013303;28;20181;-70
2023/09/30 04:32:39;;;;;;;9.55;4.60;;;29.50;51.00;;;;;;5013307;28;20267;-70
2023/09/30 04:35:10;;;;;;;10.13;4.38;;;30.20;49.60;;;;;;5010941;28;20209;-70
2023/09/30 04:37:38;;;;;;;10.18;4.60;;;29.60;50.70;;;;;;5012784;28;20178;-70
2023/09/30 04:40:15;;;;;;;10.07;4.85;;;29.70;51.20;;;;;;5012263;28;20185;-69
2023/09/30 04:42:46;;;;;;;10.73;4.22;;;29.80;50.80;;;;;;5011539;28;20207;-70
2023/09/30 04:45:19;;;;;;;6.22;4.10;;;29.80;51.70;;;;;;5011420;28;20181;-70
2023/09/30 04:47:49;;;;;;;9.75;4.43;;;29.20;52.80;;;;;;5011711;28;20381;-71
2023/09/30 04:50:21;;;;;;;7.20;4.03;;;29.40;53.10;;;;;;5012696;28;20182;-72
2023/09/30 04:52:50;;;;;;;9.80;4.32;;;29.70;51.70;;;;;;5012733;28;20189;-68
2023/09/30 04:55:18;;;;;;;16.70;4.30;;;29.90;50.70;;;;;;5012803;28;20217;-71
2023/09/30 04:57:53;;;;;;;9.90;4.60;;;29.80;51.30;;;;;;5012160;28;20185;-69
2023/09/30 05:00:30;;;;;;;13.10;4.70;;;29.30;52.90;;;;;;5011669;28;20725;-72
2023/09/30 05:02:59;;;;;;;12.95;4.18;;;29.70;52.60;;;;;;5010744;28;20185;-75
2023/09/30 05:05:26;;;;;;;12.23;4.82;;;30.30;51.90;;;;;;5011349;28;20268;-70
2023/09/30 05:07:53;;;;;;;11.35;4.45;;;30.20;51.60;;;;;;5011717;28;20201;-69
2023/09/30 05:10:21;;;;;;;11.60;4.57;;;30.00;51.40;;;;;;5004719;28;20189;-69
2023/09/30 05:13:08;;;;;;;11.27;3.90;;;29.50;53.70;;;;;;5008713;28;20191;-71
2023/09/30 05:15:35;;;;;;;12.85;4.30;;;30.00;51.60;;;;;;5008232;28;20193;-70
2023/09/30 05:18:04;;;;;;;7.45;4.00;;;29.90;52.20;;;;;;5008339;28;20377;-74
2023/09/30 05:20:32;;;;;;;12.23;4.43;;;29.30;53.50;;;;;;5008838;28;20229;-69
2023/09/30 05:22:59;;;;;;;12.73;4.28;;;29.20;53.80;;;;;;5009006;28;20228;-69
2023/09/30 05:25:27;;;;;;;12.25;4.20;;;29.20;54.10;;;;;;5010759;28;20181;-72
2023/09/30 05:28:13;;;;;;;11.05;4.00;;;28.80;55.40;;;;;;5014418;28;20289;-70
2023/09/30 05:30:41;;;;;;;11.53;4.43;;;28.80;55.80;;;;;;5014844;28;20181;-69
2023/09/30 05:33:13;;;;;;;8.95;4.10;;;28.70;55.60;;;;;;5013173;28;20204;-68
2023/09/30 05:35:41;;;;;;;12.53;4.63;;;29.00;55.40;;;;;;5014442;28;20196;-69
2023/09/30 05:38:09;;;;;;;10.60;4.23;;;29.10;54.40;;;;;;5015474;28;20173;-68
2023/09/30 05:40:38;;;;;;;8.88;3.60;;;28.80;55.40;;;;;;5014899;28;20188;-69
2023/09/30 05:43:06;;;;;;;11.40;4.35;;;28.60;55.60;;;;;;5015137;28;20236;-70
2023/09/30 05:45:37;;;;;;;11.23;4.03;;;28.90;55.70;;;;;;5010991;28;20267;-71
2023/09/30 05:48:07;;;;;;;9.73;4.50;;;29.20;54.10;;;;;;5014625;28;20540;-68
2023/09/30 05:50:54;;;;;;;11.63;4.40;;;28.50;55.90;;;;;;5012960;28;20192;-70
2023/09/30 05:53:22;;;;;;;9.25;4.13;;;29.10;54.70;;;;;;5013894;28;20205;-71
2023/09/30 05:55:50;;;;;;;12.17;4.47;;;29.20;54.30;;;;;;5015898;28;20193;-72
2023/09/30 05:58:18;;;;;;;9.65;3.83;;;29.20;53.90;;;;;;5012077;28;20219;-71
2023/09/30 06:00:45;;;;;;;14.67;4.57;;;29.40;53.60;;;;;;5013713;28;20268;-70
2023/09/30 06:03:12;;;;;;;14.32;4.65;;;29.80;52.80;;;;;;5014711;28;20204;-69
2023/09/30 06:05:43;;;;;;;12.95;4.30;;;29.20;54.10;;;;;;5013635;28;20196;-70
2023/09/30 06:08:13;;;;;;;9.57;4.30;;;29.20;54.60;;;;;;5014751;28;20233;-71
2023/09/30 06:10:44;;;;;;;10.27;4.28;;;29.70;52.70;;;;;;5017233;28;20528;-70
2023/09/30 06:13:12;;;;;;;9.50;4.28;;;28.90;54.30;;;;;;5014888;28;20192;-71
2023/09/30 06:15:40;;;;;;;12.43;4.53;;;29.00;54.60;;;;;;5012905;28;20182;-72
2023/09/30 06:18:13;;;;;;;7.30;3.70;;;28.60;54.70;;;;;;5014011;28;20196;-73
2023/09/30 06:20:41;;;;;;;20.20;4.40;;;28.50;55.10;;;;;;5014523;28;20230;-73
2023/09/30 06:23:12;;;;;;;8.33;3.87;;;28.90;54.30;;;;;;5013004;28;20221;-74
2023/09/30 06:25:40;;;;;;;7.17;4.07;;;28.00;56.30;;;;;;5014362;28;20755;-73
2023/09/30 06:28:08;;;;;;;11.53;4.10;;;28.40;55.10;;;;;;5014790;28;20276;-73
2023/09/30 06:30:36;;;;;;;9.75;4.47;;;28.20;56.20;;;;;;5009731;28;20557;-70
2023/09/30 06:33:04;;;;;;;8.63;3.87;;;27.80;56.90;;;;;;5013132;28;20232;-72
2023/09/30 06:35:37;;;;;;;11.30;4.10;;;27.70;57.50;;;;;;5012833;28;20647;-74
2023/09/30 06:38:06;;;;;;;11.63;4.43;;;28.20;56.30;;;;;;5029129;28;20182;-70
2023/09/30 06:40:42;;;;;;;10.50;4.63;;;27.80;56.80;;;;;;5010911;28;20643;-71
2023/09/30 06:43:10;;;;;;;10.43;4.07;;;28.40;55.00;;;;;;5013259;28;20185;-74
2023/09/30 06:45:41;;;;;;;9.70;3.90;;;27.80;56.70;;;;;;5012928;28;20594;-74
2023/09/30 06:48:15;;;;;;;9.80;4.20;;;28.10;55.50;;;;;;5013706;28;20231;-71
2023/09/30 06:50:52;;;;;;;11.63;3.80;;;28.30;54.50;;;;;;5013681;28;20205;-75
2023/09/30 06:53:21;;;;;;;11.60;4.27;;;27.70;55.90;;;;;;5008910;28;20259;-74
2023/09/30 06:55:48;;;;;;;11.93;3.77;;;27.60;56.60;;;;;;5009399;28;20212;-71
2023/09/30 06:58:20;;;;;;;9.87;4.07;;;27.90;55.60;;;;;;5011995;28;20631;-69
2023/09/30 07:00:53;;;;;;;10.27;4.20;;;27.70;55.60;;;;;;5012289;28;20246;-69
2023/09/30 07:03:21;;;;;;;9.80;3.83;;;28.20;55.50;;;;;;5011771;28;20690;-70
2023/09/30 07:05:51;;;;;;;11.90;4.50;;;27.90;54.40;;;;;;5012364;28;20197;-71
2023/09/30 07:08:21;;;;;;;12.47;4.10;;;27.20;56.40;;;;;;5013329;28;20192;-72
2023/09/30 07:10:52;;;;;;;11.67;4.10;;;26.80;56.90;;;;;;5014134;28;20204;-74
2023/09/30 07:13:20;;;;;;;10.40;3.57;;;26.70;57.20;;;;;;5012087;28;20220;-73
2023/09/30 07:15:47;;;;;;;9.87;3.83;;;26.60;56.80;;;;;;5012539;28;20194;-72
2023/09/30 07:18:15;;;;;;;11.90;3.60;;;26.40;57.80;;;;;;5011483;28;20181;-71
2023/09/30 07:20:42;;;;;;;10.70;3.80;;;26.40;57.10;;;;;;5012766;28;20234;-73
2023/09/30 07:23:10;;;;;;;11.40;3.70;;;25.60;59.10;;;;;;5010159;28;20303;-75
2023/09/30 07:25:37;;;;;;;8.47;4.43;;;25.00;60.70;;;;;;5012345;28;20718;-74
2023/09/30 07:28:04;;;;;;;10.87;3.57;;;24.60;61.80;;;;;;5027431;28;20196;-73
2023/09/30 07:30:32;;;;;;;9.97;3.77;;;24.40;62.00;;;;;;5012133;28;20193;-70
2023/09/30 07:32:59;;;;;;;18.90;4.00;;;24.30;62.60;;;;;;5012082;28;20587;-74
2023/09/30 07:35:30;;;;;;;6.97;3.83;;;24.10;62.60;;;;;;5011309;28;20193;-73
2023/09/30 07:37:57;;;;;;;11.60;3.93;;;24.00;63.00;;;;;;5011676;28;20192;-71
2023/09/30 07:40:25;;;;;;;8.00;3.47;;;23.90;62.60;;;;;;5012143;28;20189;-74
2023/09/30 07:42:52;;;;;;;9.83;3.80;;;23.80;62.70;;;;;;5012995;28;20248;-75
2023/09/30 07:45:21;;;;;;;12.50;4.00;;;23.70;63.00;;;;;;5011951;28;20193;-73
2023/09/30 07:47:49;;;;;;;8.90;3.80;;;23.60;62.90;;;;;;5010589;28;20304;-73
2023/09/30 07:50:16;;;;;;;9.57;3.83;;;23.60;62.60;;;;;;5010667;28;20589;-69
2023/09/30 07:52:43;;;;;;;9.20;4.00;;;23.50;63.10;;;;;;5013942;28;20196;-74
2023/09/30 07:55:11;;;;;;;11.10;3.80;;;23.30;63.10;;;;;;5012558;28;20627;-69
2023/09/30 07:57:44;;;;;;;7.80;3.33;;;23.30;63.20;;;;;;5010634;28;20736;-72
2023/09/30 08:00:15;;;;;;;13.47;3.80;;;23.30;63.30;;;;;;5009921;28;20197;-69
2023/09/30 08:02:45;;;;;;;12.13;4.10;;;23.20;63.20;;;;;;5013371;28;20727;-70
2023/09/30 08:05:13;;;;;;;8.83;3.20;;;23.20;63.10;;;;;;5011936;28;20186;-73
2023/09/30 08:07:41;;;;;;;15.80;4.00;;;23.10;62.80;;;;;;5012235;28;20185;-71
2023/09/30 08:10:13;;;;;;;11.13;3.80;;;23.10;62.60;;;;;;5013604;28;20789;-69
2023/09/30 08:12:41;;;;;;;11.40;4.27;;;23.10;62.80;;;;;;5012481;28;20255;-69
2023/09/30 08:15:11;;;;;;;8.37;3.77;;;23.00;62.90;;;;;;5013395;28;20217;-70
2023/09/30 08:17:39;;;;;;;11.53;4.00;;;23.00;62.90;;;;;;5012023;28;20207;-72
2023/09/30 08:20:08;;;;;;;12.07;4.30;;;22.90;63.20;;;;;;5013337;28;20643;-70
2023/09/30 08:22:36;;;;;;;11.77;3.97;;;22.90;63.30;;;;;;5012920;28;20711;-73
2023/09/30 08:25:03;;;;;;;9.80;3.87;;;22.90;63.10;;;;;;5013395;28;20185;-70
2023/09/30 08:27:31;;;;;;;13.57;3.90;;;22.80;62.90;;;;;;5013176;28;20181;-69
2023/09/30 08:29:59;;;;;;;14.27;4.80;;;22.80;62.90;;;;;;5011952;28;20181;-73
2023/09/30 08:32:26;;;;;;;12.13;4.00;;;22.80;62.80;;;;;;5013164;28;20319;-71
2023/09/30 08:34:55;;;;;;;15.43;4.07;;;22.80;63.10;;;;;;5012736;28;20228;-71
2023/09/30 08:37:22;;;;;;;12.27;4.57;;;22.80;63.10;;;;;;5012973;28;20178;-69
2023/09/30 08:39:50;;;;;;;10.33;4.23;;;22.80;63.30;;;;;;5012876;28;20639;-71
2023/09/30 08:42:20;;;;;;;12.40;4.43;;;22.80;63.30;;;;;;5013092;28;20207;-68
2023/09/30 08:44:48;;;;;;;13.47;4.90;;;22.70;63.20;;;;;;5012967;28;20536;-72
2023/09/30 08:47:16;;;;;;;12.40;4.73;;;22.70;63.10;;;;;;5005295;28;20173;-72
2023/09/30 08:49:45;;;;;;;14.00;4.43;;;22.60;63.10;;;;;;5012605;28;20181;-69
2023/09/30 08:52:14;;;;;;;13.87;4.57;;;22.60;62.90;;;;;;5012716;28;20191;-69
2023/09/30 08:54:42;;;;;;;12.60;4.17;;;22.50;63.00;;;;;;5012608;28;20303;-71
2023/09/30 08:57:13;;;;;;;15.93;4.73;;;22.50;62.90;;;;;;5012926;28;20181;-70
2023/09/30 08:59:43;;;;;;;14.43;4.37;;;22.50;62.50;;;;;;5012691;28;20193;-71
2023/09/30 09:02:11;;;;;;;11.90;4.30;;;22.50;62.30;;;;;;5012661;28;20280;-71
2023/09/30 09:04:38;;;;;;;9.90;4.13;;;22.50;61.50;;;;;;5012474;28;20185;-72
2023/09/30 09:07:06;;;;;;;11.90;4.20;;;22.50;61.50;;;;;;5012621;28;20680;-70
2023/09/30 09:09:33;;;;;;;17.60;4.10;;;22.50;60.60;;;;;;5009801;28;20185;-72
2023/09/30 09:12:00;;;;;;;12.43;4.10;;;22.50;59.80;;;;;;5012428;28;20189;-70
2023/09/30 09:14:42;;;;;;;17.17;4.07;;;22.50;59.40;;;;;;5012533;28;20220;-68
2023/09/30 09:17:11;;;;;;;11.60;3.90;;;22.60;58.90;;;;;;5012299;28;20539;-70
2023/09/30 09:19:38;;;;;;;15.37;4.00;;;22.50;59.10;;;;;;5012070;28;20636;-74
2023/09/30 09:22:06;;;;;;;9.63;4.00;;;22.50;58.80;;;;;;5011981;28;20198;-71
2023/09/30 09:24:42;;;;;;;9.40;3.50;;;22.50;58.70;;;;;;5012304;28;20320;-69
2023/09/30 09:27:16;;;;;;;7.37;3.70;;;22.50;58.10;;;;;;5011109;28;20547;-72
2023/09/30 09:29:45;;;;;;;14.13;4.00;;;22.50;58.00;;;;;;5012263;28;20229;-70
2023/09/30 09:32:17;;;;;;;10.23;3.73;;;22.60;57.70;;;;;;5012407;28;20185;-69
2023/09/30 09:34:59;;;;;;;10.67;3.40;;;22.50;57.90;;;;;;5027351;28;20244;-71
2023/09/30 09:37:27;;;;;;;11.53;3.60;;;22.60;57.00;;;;;;5012031;28;20651;-71
2023/09/30 09:39:58;;;;;;;11.97;4.07;;;22.50;57.80;;;;;;5011470;28;20185;-75
2023/09/30 09:42:33;;;;;;;12.50;3.77;;;22.60;58.40;;;;;;5012416;28;20216;-72
2023/09/30 09:45:08;;;;;;;15.43;4.27;;;22.50;59.40;;;;;;5011371;28;20230;-71
2023/09/30 09:47:37;;;;;;;14.23;4.20;;;22.50;59.30;;;;;;5011044;28;20610;-69
2023/09/30 09:50:08;;;;;;;18.93;4.40;;;22.50;59.70;;;;;;5012383;28;20186;-69
2023/09/30 09:52:37;;;;;;;10.23;4.00;;;22.40;60.10;;;;;;5010801;28;20181;-71
2023/09/30 09:55:06;;;;;;;14.47;3.93;;;22.50;60.70;;;;;;5012108;28;20221;-70
2023/09/30 09:57:34;;;;;;;11.03;4.20;;;22.40;61.00;;;;;;5012171;28;20553;-71
2023/09/30 10:00:13;;;;;;;11.83;4.10;;;22.40;62.00;;;;;;5012172;28;20205;-69
2023/09/30 10:02:45;;;;;;;12.17;4.30;;;22.30;62.40;;;;;;5010563;28;20546;-71
2023/09/30 10:05:14;;;;;;;11.50;4.10;;;22.30;62.70;;;;;;5009239;28;20636;-67
2023/09/30 10:08:02;;;;;;;14.10;4.40;;;22.30;62.90;;;;;;5009247;28;20652;-69
2023/09/30 10:10:30;;;;;;;17.47;4.70;;;22.30;62.50;;;;;;5013155;28;20628;-71
2023/09/30 10:12:59;;;;;;;16.90;4.30;;;22.30;62.90;;;;;;5015111;28;20185;-71
2023/09/30 10:15:26;;;;;;;16.10;4.30;;;22.30;63.20;;;;;;5015464;28;20742;-70
2023/09/30 10:18:09;;;;;;;13.17;4.20;;;22.20;63.60;;;;;;5013133;28;20189;-70
2023/09/30 10:20:43;;;;;;;17.40;5.17;;;22.20;63.80;;;;;;5012190;28;20189;-70
2023/09/30 10:23:21;;;;;;;10.50;4.63;;;22.10;63.60;;;;;;5014454;28;20240;-70
2023/09/30 10:25:51;;;;;;;19.00;5.77;;;22.10;63.70;;;;;;5009504;28;20216;-70
2023/09/30 10:28:46;;;;;;;14.67;4.80;;;22.00;64.00;;;;;;5014858;28;20204;-73
2023/09/30 10:31:24;;;;;;;19.87;5.57;;;22.00;64.20;;;;;;5012733;28;20271;-69
2023/09/30 10:34:00;;;;;;;16.47;4.20;;;22.00;64.40;;;;;;5013217;28;20212;-70
2023/09/30 10:36:42;;;;;;;19.30;4.70;;;21.90;64.70;;;;;;5015143;28;20261;-70
2023/09/30 10:39:14;;;;;;;17.03;4.40;;;21.90;64.80;;;;;;5015069;28;20184;-70
2023/09/30 10:41:45;;;;;;;16.07;4.47;;;21.80;65.10;;;;;;5012221;28;20264;-69
2023/09/30 10:44:29;;;;;;;12.40;4.23;;;21.80;65.20;;;;;;5014615;28;20204;-70
2023/09/30 10:46:58;;;;;;;17.20;4.40;;;21.80;65.30;;;;;;5015594;28;20208;-70
2023/09/30 10:49:26;;;;;;;13.97;4.30;;;21.60;65.60;;;;;;5014641;28;20268;-74
2023/09/30 10:51:58;;;;;;;20.13;6.90;;;21.60;66.00;;;;;;5014448;28;20209;-70
2023/09/30 10:54:27;;;;;;;17.23;7.43;;;21.50;66.20;;;;;;5009970;28;20241;-71
2023/09/30 10:56:55;;;;;;;13.93;7.03;;;21.50;66.00;;;;;;5015212;28;20662;-73
2023/09/30 10:59:30;;;;;;;16.93;6.60;;;21.50;66.20;;;;;;5014337;28;20204;-74
2023/09/30 11:01:58;;;;;;;15.03;5.17;;;21.40;66.40;;;;;;5014004;28;20181;-70
2023/09/30 11:04:27;;;;;;;20.33;7.13;;;21.30;66.40;;;;;;5015332;28;20196;-74
2023/09/30 11:06:54;;;;;;;18.70;7.40;;;21.30;66.20;;;;;;5013156;28;20189;-73
2023/09/30 11:09:23;;;;;;;14.23;5.20;;;21.20;66.50;;;;;;5013033;28;20636;-74
2023/09/30 11:11:53;;;;;;;18.77;5.43;;;21.10;66.60;;;;;;5011679;28;20272;-74
2023/09/30 11:14:25;;;;;;;15.43;5.10;;;21.00;67.00;;;;;;5013163;28;20591;-73
2023/09/30 11:16:54;;;;;;;11.20;4.03;;;21.00;67.10;;;;;;5010519;28;20691;-72
2023/09/30 11:19:22;;;;;;;13.27;4.50;;;20.90;67.60;;;;;;5009943;28;20554;-72
2023/09/30 11:21:51;;;;;;;10.93;4.40;;;20.90;67.10;;;;;;5008498;28;20238;-70
2023/09/30 11:24:19;;;;;;;12.83;4.93;;;20.80;67.60;;;;;;5013763;28;20244;-73
2023/09/30 11:26:47;;;;;;;13.40;4.20;;;20.80;67.70;;;;;;5014336;28;20667;-71
2023/09/30 11:29:17;;;;;;;14.07;4.60;;;20.80;67.80;;;;;;5013453;28;20185;-71
2023/09/30 11:31:47;;;;;;;12.40;4.40;;;20.80;68.00;;;;;;5013829;28;20189;-70
2023/09/30 11:34:17;;;;;;;12.13;4.70;;;20.80;68.10;;;;;;5013873;28;20217;-68
2023/09/30 11:36:54;;;;;;;14.87;5.03;;;20.70;68.10;;;;;;5011219;28;20290;-70
2023/09/30 11:39:29;;;;;;;10.63;5.50;;;20.60;68.20;;;;;;5013869;28;20279;-69
2023/09/30 11:41:57;;;;;;;15.20;5.10;;;20.70;68.70;;;;;;5013231;28;20185;-70
2023/09/30 11:44:31;;;;;;;12.80;5.00;;;20.60;68.50;;;;;;5013550;28;20212;-69
2023/09/30 11:47:01;;;;;;;16.93;4.53;;;20.70;68.60;;;;;;5013924;28;20540;-70
2023/09/30 11:49:40;;;;;;;11.90;5.43;;;20.90;65.90;;;;;;5013150;28;20190;-71
2023/09/30 11:52:13;;;;;;;13.27;5.13;;;21.00;66.40;;;;;;5013578;28;20181;-72
2023/09/30 11:54:43;;;;;;;11.80;5.03;;;20.90;67.30;;;;;;5013201;28;20213;-74
2023/09/30 11:57:21;;;;;;;15.07;4.93;;;20.90;67.90;;;;;;5012453;28;20202;-74
2023/09/30 11:59:48;;;;;;;17.53;4.90;;;20.80;68.50;;;;;;5012674;28;20203;-75
2023/09/30 12:02:19;;;;;;;18.10;5.43;;;20.80;69.00;;;;;;5007089;28;20185;-74
2023/09/30 12:04:47;;;;;;;17.37;4.97;;;20.80;69.30;;;;;;5009808;28;20193;-72
2023/09/30 12:07:15;;;;;;;21.67;5.17;;;20.90;68.50;;;;;;5008137;28;20196;-70
2023/09/30 12:09:42;;;;;;;10.17;4.77;;;20.90;68.30;;;;;;5009317;28;20574;-69
2023/09/30 12:12:10;;;;;;;17.30;5.23;;;20.80;68.50;;;;;;5012738;28;20193;-68
2023/09/30 12:14:38;;;;;;;16.97;5.00;;;20.80;68.80;;;;;;5012442;28;20226;-69
2023/09/30 12:17:05;;;;;;;19.03;4.67;;;20.70;69.10;;;;;;5013160;28;20185;-70
2023/09/30 12:19:34;;;;;;;16.87;4.23;;;20.60;69.10;;;;;;5010817;28;20177;-71
2023/09/30 12:22:02;;;;;;;13.23;4.80;;;20.70;69.70;;;;;;5011740;28;20184;-70
2023/09/30 12:24:31;;;;;;;14.30;4.77;;;20.70;69.80;;;;;;5011623;28;20241;-70
2023/09/30 12:26:58;;;;;;;18.03;5.30;;;20.60;69.80;;;;;;5012832;28;20193;-69
2023/09/30 12:29:25;;;;;;;17.93;5.30;;;20.60;70.00;;;;;;5013062;28;20268;-69
2023/09/30 12:31:53;;;;;;;14.03;5.10;;;20.60;70.40;;;;;;5012517;28;20673;-70
2023/09/30 12:34:23;;;;;;;14.50;5.00;;;20.60;70.20;;;;;;5010904;28;20209;-70
2023/09/30 12:36:51;;;;;;;20.37;5.93;;;20.60;70.30;;;;;;5010147;28;20181;-69
2023/09/30 12:39:23;;;;;;;14.83;4.90;;;20.60;70.60;;;;;;5012281;28;20242;-70
2023/09/30 12:41:51;;;;;;;14.90;5.13;;;20.60;70.50;;;;;;5013759;28;20272;-70
2023/09/30 12:44:19;;;;;;;17.03;5.40;;;20.50;70.80;;;;;;5013159;28;20645;-72
2023/09/30 12:46:46;;;;;;;16.23;5.27;;;20.50;71.00;;;;;;5012739;28;20185;-71
2023/09/30 12:49:13;;;;;;;15.80;4.87;;;20.40;71.00;;;;;;5011183;28;20643;-74
2023/09/30 12:51:41;;;;;;;27.97;5.63;;;20.40;71.40;;;;;;5012048;28;20188;-72
2023/09/30 12:54:09;;;;;;;12.43;4.30;;;20.30;72.00;;;;;;5011140;28;20213;-71
2023/09/30 12:56:36;;;;;;;15.40;4.70;;;20.30;72.20;;;;;;5010738;28;20213;-73